sensor_id;sensor_type;location;lat;lon;timestamp;temperature;humidity
34877;DHT22;21086;44.780;17.194;2022-09-09T00:00:22;23.10;99.90
34877;DHT22;21086;44.780;17.194;2022-09-09T00:03:22;23.10;99.90
34877;DHT22;21086;44.780;17.194;2022-09-09T00:06:08;23.10;99.90
34877;DHT22;21086;44.780;17.194;2022-09-09T00:14:58;23.00;99.90
34877;DHT22;21086;44.780;17.194;2022-09-09T00:22:30;22.80;99.90
34877;DHT22;21086;44.780;17.194;2022-09-09T00:28:27;22.60;99.90
34877;DHT22;21086;44.780;17.194;2022-09-09T00:30:56;22.90;99.90
34877;DHT22;21086;44.780;17.194;2022-09-09T00:33:25;22.70;99.90
34877;DHT22;21086;44.780;17.194;2022-09-09T00:36:02;22.60;99.90
34877;DHT22;21086;44.780;17.194;2022-09-09T00:38:45;22.70;99.90
34877;DHT22;21086;44.780;17.194;2022-09-09T00:44:32;22.70;99.90
34877;DHT22;21086;44.780;17.194;2022-09-09T00:49:50;22.60;99.90
34877;DHT22;21086;44.780;17.194;2022-09-09T00:58:19;22.40;99.90
34877;DHT22;21086;44.780;17.194;2022-09-09T01:00:51;22.50;99.90
34877;DHT22;21086;44.780;17.194;2022-09-09T01:06:27;22.30;99.90
34877;DHT22;21086;44.780;17.194;2022-09-09T01:12:15;22.30;99.90
34877;DHT22;21086;44.780;17.194;2022-09-09T01:25:11;22.40;99.90
34877;DHT22;21086;44.780;17.194;2022-09-09T01:27:42;22.40;99.90
34877;DHT22;21086;44.780;17.194;2022-09-09T01:30:13;22.20;99.90
34877;DHT22;21086;44.780;17.194;2022-09-09T01:32:53;22.10;99.90
34877;DHT22;21086;44.780;17.194;2022-09-09T01:35:29;22.00;99.90
34877;DHT22;21086;44.780;17.194;2022-09-09T01:37:58;21.90;99.90
34877;DHT22;21086;44.780;17.194;2022-09-09T01:40:25;21.80;99.90
34877;DHT22;21086;44.780;17.194;2022-09-09T01:42:53;21.80;99.90
34877;DHT22;21086;44.780;17.194;2022-09-09T01:45:21;21.90;99.90
34877;DHT22;21086;44.780;17.194;2022-09-09T01:47:48;21.90;99.90
34877;DHT22;21086;44.780;17.194;2022-09-09T01:50:16;21.90;99.90
34877;DHT22;21086;44.780;17.194;2022-09-09T01:52:45;21.80;99.90
34877;DHT22;21086;44.780;17.194;2022-09-09T01:55:14;21.70;99.90
34877;DHT22;21086;44.780;17.194;2022-09-09T01:58:01;21.70;99.90
34877;DHT22;21086;44.780;17.194;2022-09-09T02:00:36;21.70;99.90
34877;DHT22;21086;44.780;17.194;2022-09-09T02:06:09;21.70;99.90
34877;DHT22;21086;44.780;17.194;2022-09-09T02:08:48;21.70;99.90
34877;DHT22;21086;44.780;17.194;2022-09-09T02:11:18;21.70;99.90
34877;DHT22;21086;44.780;17.194;2022-09-09T02:13:48;21.60;99.90
34877;DHT22;21086;44.780;17.194;2022-09-09T02:16:25;21.50;99.90
34877;DHT22;21086;44.780;17.194;2022-09-09T02:19:01;21.70;99.90
34877;DHT22;21086;44.780;17.194;2022-09-09T02:21:29;21.60;99.90
34877;DHT22;21086;44.780;17.194;2022-09-09T02:23:59;21.60;99.90
34877;DHT22;21086;44.780;17.194;2022-09-09T02:26:27;21.60;99.90
34877;DHT22;21086;44.780;17.194;2022-09-09T02:28:55;21.60;99.90
34877;DHT22;21086;44.780;17.194;2022-09-09T02:31:25;21.50;99.90
34877;DHT22;21086;44.780;17.194;2022-09-09T02:33:58;21.50;99.90
34877;DHT22;21086;44.780;17.194;2022-09-09T02:36:31;21.30;99.90
34877;DHT22;21086;44.780;17.194;2022-09-09T02:39:00;21.30;99.90
34877;DHT22;21086;44.780;17.194;2022-09-09T02:41:35;21.20;99.90
34877;DHT22;21086;44.780;17.194;2022-09-09T02:44:13;21.20;99.90
34877;DHT22;21086;44.780;17.194;2022-09-09T02:49:53;21.30;99.90
34877;DHT22;21086;44.780;17.194;2022-09-09T02:55:47;21.20;99.90
34877;DHT22;21086;44.780;17.194;2022-09-09T02:58:17;21.40;1.00
34877;DHT22;21086;44.780;17.194;2022-09-09T03:00:49;21.30;99.90
34877;DHT22;21086;44.780;17.194;2022-09-09T03:03:18;21.30;1.00
34877;DHT22;21086;44.780;17.194;2022-09-09T03:05:45;21.30;1.00
34877;DHT22;21086;44.780;17.194;2022-09-09T03:08:13;21.40;1.00
34877;DHT22;21086;44.780;17.194;2022-09-09T03:10:40;21.30;1.00
34877;DHT22;21086;44.780;17.194;2022-09-09T03:13:08;21.20;1.00
34877;DHT22;21086;44.780;17.194;2022-09-09T03:15:34;21.20;1.00
34877;DHT22;21086;44.780;17.194;2022-09-09T03:18:02;21.00;1.00
34877;DHT22;21086;44.780;17.194;2022-09-09T03:20:30;21.10;1.00
34877;DHT22;21086;44.780;17.194;2022-09-09T03:22:59;21.00;1.00
34877;DHT22;21086;44.780;17.194;2022-09-09T03:25:26;20.90;1.00
34877;DHT22;21086;44.780;17.194;2022-09-09T03:27:54;20.80;1.00
34877;DHT22;21086;44.780;17.194;2022-09-09T03:30:22;20.80;1.00
34877;DHT22;21086;44.780;17.194;2022-09-09T03:32:49;20.80;1.00
34877;DHT22;21086;44.780;17.194;2022-09-09T03:35:16;20.80;1.00
34877;DHT22;21086;44.780;17.194;2022-09-09T03:37:43;20.80;1.00
34877;DHT22;21086;44.780;17.194;2022-09-09T03:40:10;20.80;1.00
34877;DHT22;21086;44.780;17.194;2022-09-09T03:42:38;20.80;1.00
34877;DHT22;21086;44.780;17.194;2022-09-09T03:45:07;20.80;1.00
34877;DHT22;21086;44.780;17.194;2022-09-09T03:47:35;20.90;1.00
34877;DHT22;21086;44.780;17.194;2022-09-09T03:50:04;20.80;1.00
34877;DHT22;21086;44.780;17.194;2022-09-09T03:52:39;20.60;1.00
34877;DHT22;21086;44.780;17.194;2022-09-09T03:55:08;20.60;1.00
34877;DHT22;21086;44.780;17.194;2022-09-09T03:57:35;20.50;1.00
34877;DHT22;21086;44.780;17.194;2022-09-09T04:00:04;20.50;1.00
34877;DHT22;21086;44.780;17.194;2022-09-09T04:02:31;20.40;1.00
34877;DHT22;21086;44.780;17.194;2022-09-09T04:04:58;20.40;1.00
34877;DHT22;21086;44.780;17.194;2022-09-09T04:07:26;20.50;1.00
34877;DHT22;21086;44.780;17.194;2022-09-09T04:09:54;20.50;1.00
34877;DHT22;21086;44.780;17.194;2022-09-09T04:12:21;20.50;1.00
34877;DHT22;21086;44.780;17.194;2022-09-09T04:14:49;20.40;1.00
34877;DHT22;21086;44.780;17.194;2022-09-09T04:17:16;20.40;1.00
34877;DHT22;21086;44.780;17.194;2022-09-09T04:19:43;20.40;1.00
34877;DHT22;21086;44.780;17.194;2022-09-09T04:22:10;20.40;1.00
34877;DHT22;21086;44.780;17.194;2022-09-09T04:24:37;20.40;1.00
34877;DHT22;21086;44.780;17.194;2022-09-09T04:27:04;20.30;1.00
34877;DHT22;21086;44.780;17.194;2022-09-09T04:29:31;20.30;1.00
34877;DHT22;21086;44.780;17.194;2022-09-09T04:31:58;20.40;1.00
34877;DHT22;21086;44.780;17.194;2022-09-09T04:34:25;20.50;1.00
34877;DHT22;21086;44.780;17.194;2022-09-09T04:36:52;20.50;1.00
34877;DHT22;21086;44.780;17.194;2022-09-09T04:39:19;20.60;1.00
34877;DHT22;21086;44.780;17.194;2022-09-09T04:41:46;20.60;1.00
34877;DHT22;21086;44.780;17.194;2022-09-09T04:44:13;20.60;1.00
34877;DHT22;21086;44.780;17.194;2022-09-09T04:46:41;20.60;1.00
34877;DHT22;21086;44.780;17.194;2022-09-09T04:49:08;20.60;1.00
34877;DHT22;21086;44.780;17.194;2022-09-09T04:51:40;20.60;1.00
34877;DHT22;21086;44.780;17.194;2022-09-09T04:54:07;20.60;1.00
34877;DHT22;21086;44.780;17.194;2022-09-09T04:56:34;20.60;1.00
34877;DHT22;21086;44.780;17.194;2022-09-09T04:59:01;20.70;1.00
34877;DHT22;21086;44.780;17.194;2022-09-09T05:01:29;20.80;1.00
34877;DHT22;21086;44.780;17.194;2022-09-09T05:03:56;20.80;1.00
34877;DHT22;21086;44.780;17.194;2022-09-09T05:06:23;21.00;1.00
34877;DHT22;21086;44.780;17.194;2022-09-09T05:08:50;20.80;1.00
34877;DHT22;21086;44.780;17.194;2022-09-09T05:11:19;20.70;1.00
34877;DHT22;21086;44.780;17.194;2022-09-09T05:13:46;20.80;1.00
34877;DHT22;21086;44.780;17.194;2022-09-09T05:16:14;20.70;1.00
34877;DHT22;21086;44.780;17.194;2022-09-09T05:18:41;20.70;1.00
34877;DHT22;21086;44.780;17.194;2022-09-09T05:21:10;21.00;1.00
34877;DHT22;21086;44.780;17.194;2022-09-09T05:23:37;20.80;1.00
34877;DHT22;21086;44.780;17.194;2022-09-09T05:26:05;20.80;1.00
34877;DHT22;21086;44.780;17.194;2022-09-09T05:28:34;20.80;1.00
34877;DHT22;21086;44.780;17.194;2022-09-09T05:31:08;20.80;1.00
34877;DHT22;21086;44.780;17.194;2022-09-09T05:33:35;20.90;1.00
34877;DHT22;21086;44.780;17.194;2022-09-09T05:36:08;20.90;1.00
34877;DHT22;21086;44.780;17.194;2022-09-09T05:38:37;20.90;1.00
34877;DHT22;21086;44.780;17.194;2022-09-09T05:41:04;20.80;1.00
34877;DHT22;21086;44.780;17.194;2022-09-09T05:43:31;20.90;1.00
34877;DHT22;21086;44.780;17.194;2022-09-09T05:46:10;20.90;1.00
34877;DHT22;21086;44.780;17.194;2022-09-09T05:48:42;21.10;1.00
34877;DHT22;21086;44.780;17.194;2022-09-09T05:51:10;21.10;1.00
34877;DHT22;21086;44.780;17.194;2022-09-09T05:53:45;21.20;1.00
34877;DHT22;21086;44.780;17.194;2022-09-09T05:56:18;21.20;1.00
34877;DHT22;21086;44.780;17.194;2022-09-09T05:58:46;21.20;1.00
34877;DHT22;21086;44.780;17.194;2022-09-09T06:01:18;21.20;1.00
34877;DHT22;21086;44.780;17.194;2022-09-09T06:03:47;21.40;1.00
34877;DHT22;21086;44.780;17.194;2022-09-09T06:06:16;21.40;1.00
34877;DHT22;21086;44.780;17.194;2022-09-09T06:08:44;21.40;1.00
34877;DHT22;21086;44.780;17.194;2022-09-09T06:11:14;21.50;1.00
34877;DHT22;21086;44.780;17.194;2022-09-09T06:13:41;21.60;1.00
34877;DHT22;21086;44.780;17.194;2022-09-09T06:16:13;21.70;1.00
34877;DHT22;21086;44.780;17.194;2022-09-09T06:18:41;21.90;1.00
34877;DHT22;21086;44.780;17.194;2022-09-09T06:21:16;21.90;1.00
34877;DHT22;21086;44.780;17.194;2022-09-09T06:23:43;22.00;1.00
34877;DHT22;21086;44.780;17.194;2022-09-09T06:26:16;22.10;1.00
34877;DHT22;21086;44.780;17.194;2022-09-09T06:28:47;22.30;1.00
34877;DHT22;21086;44.780;17.194;2022-09-09T06:31:17;22.50;1.00
34877;DHT22;21086;44.780;17.194;2022-09-09T06:33:51;22.60;1.00
34877;DHT22;21086;44.780;17.194;2022-09-09T06:36:26;22.60;1.00
34877;DHT22;21086;44.780;17.194;2022-09-09T06:38:53;22.70;1.00
34877;DHT22;21086;44.780;17.194;2022-09-09T06:41:22;22.80;1.00
34877;DHT22;21086;44.780;17.194;2022-09-09T06:43:49;22.80;1.00
34877;DHT22;21086;44.780;17.194;2022-09-09T06:46:21;23.00;1.00
34877;DHT22;21086;44.780;17.194;2022-09-09T06:48:48;23.10;1.00
34877;DHT22;21086;44.780;17.194;2022-09-09T06:51:18;23.20;1.00
34877;DHT22;21086;44.780;17.194;2022-09-09T06:53:46;23.40;1.00
34877;DHT22;21086;44.780;17.194;2022-09-09T06:56:20;23.50;1.00
34877;DHT22;21086;44.780;17.194;2022-09-09T06:58:48;23.50;1.00
34877;DHT22;21086;44.780;17.194;2022-09-09T07:01:24;23.60;1.00
34877;DHT22;21086;44.780;17.194;2022-09-09T07:03:53;23.70;1.00
34877;DHT22;21086;44.780;17.194;2022-09-09T07:06:26;23.70;99.90
34877;DHT22;21086;44.780;17.194;2022-09-09T07:08:55;23.70;1.00
34877;DHT22;21086;44.780;17.194;2022-09-09T07:11:25;23.70;99.90
34877;DHT22;21086;44.780;17.194;2022-09-09T07:13:57;23.90;99.90
34877;DHT22;21086;44.780;17.194;2022-09-09T07:16:24;24.00;99.90
34877;DHT22;21086;44.780;17.194;2022-09-09T07:18:52;24.00;99.90
34877;DHT22;21086;44.780;17.194;2022-09-09T07:21:19;24.20;99.90
34877;DHT22;21086;44.780;17.194;2022-09-09T07:23:47;24.30;99.90
34877;DHT22;21086;44.780;17.194;2022-09-09T07:26:17;24.40;99.90
34877;DHT22;21086;44.780;17.194;2022-09-09T07:28:46;24.50;99.90
34877;DHT22;21086;44.780;17.194;2022-09-09T07:31:15;24.60;99.90
34877;DHT22;21086;44.780;17.194;2022-09-09T07:33:44;24.60;99.90
34877;DHT22;21086;44.780;17.194;2022-09-09T07:36:26;24.60;99.90
34877;DHT22;21086;44.780;17.194;2022-09-09T07:39:00;24.70;99.90
34877;DHT22;21086;44.780;17.194;2022-09-09T07:44:06;24.80;99.90
34877;DHT22;21086;44.780;17.194;2022-09-09T07:46:34;24.90;99.90
34877;DHT22;21086;44.780;17.194;2022-09-09T07:49:01;25.00;99.90
34877;DHT22;21086;44.780;17.194;2022-09-09T07:51:31;25.10;99.90
34877;DHT22;21086;44.780;17.194;2022-09-09T07:54:00;25.20;99.90
34877;DHT22;21086;44.780;17.194;2022-09-09T07:56:30;25.20;99.90
34877;DHT22;21086;44.780;17.194;2022-09-09T07:58:59;25.20;99.90
34877;DHT22;21086;44.780;17.194;2022-09-09T08:01:31;25.10;99.90
34877;DHT22;21086;44.780;17.194;2022-09-09T08:04:04;25.20;99.90
34877;DHT22;21086;44.780;17.194;2022-09-09T08:06:35;25.20;99.90
34877;DHT22;21086;44.780;17.194;2022-09-09T08:09:03;25.20;99.90
34877;DHT22;21086;44.780;17.194;2022-09-09T08:11:31;25.20;99.90
34877;DHT22;21086;44.780;17.194;2022-09-09T08:14:06;25.20;99.90
34877;DHT22;21086;44.780;17.194;2022-09-09T08:16:39;25.20;99.90
34877;DHT22;21086;44.780;17.194;2022-09-09T08:19:07;25.20;99.90
34877;DHT22;21086;44.780;17.194;2022-09-09T08:21:36;25.10;99.90
34877;DHT22;21086;44.780;17.194;2022-09-09T08:24:04;25.00;99.90
34877;DHT22;21086;44.780;17.194;2022-09-09T08:26:37;25.00;99.90
34877;DHT22;21086;44.780;17.194;2022-09-09T08:29:06;24.90;99.90
34877;DHT22;21086;44.780;17.194;2022-09-09T08:31:43;24.90;99.90
34877;DHT22;21086;44.780;17.194;2022-09-09T08:34:11;25.00;99.90
34877;DHT22;21086;44.780;17.194;2022-09-09T08:36:41;24.90;99.90
34877;DHT22;21086;44.780;17.194;2022-09-09T08:39:11;24.90;99.90
34877;DHT22;21086;44.780;17.194;2022-09-09T08:52:59;25.00;99.90
34877;DHT22;21086;44.780;17.194;2022-09-09T08:58:21;25.10;99.90
34877;DHT22;21086;44.780;17.194;2022-09-09T09:03:55;25.50;99.90
34877;DHT22;21086;44.780;17.194;2022-09-09T09:07:36;25.70;99.90
34877;DHT22;21086;44.780;17.194;2022-09-09T09:12:56;26.20;99.90
34877;DHT22;21086;44.780;17.194;2022-09-09T09:15:27;26.50;99.90
34877;DHT22;21086;44.780;17.194;2022-09-09T09:17:58;26.60;99.90
34877;DHT22;21086;44.780;17.194;2022-09-09T09:23:23;27.10;99.90
34877;DHT22;21086;44.780;17.194;2022-09-09T09:25:54;27.20;99.90
34877;DHT22;21086;44.780;17.194;2022-09-09T09:28:25;27.30;99.90
34877;DHT22;21086;44.780;17.194;2022-09-09T09:31:03;27.40;99.90
34877;DHT22;21086;44.780;17.194;2022-09-09T09:33:35;27.60;99.90
34877;DHT22;21086;44.780;17.194;2022-09-09T09:36:08;27.70;99.90
34877;DHT22;21086;44.780;17.194;2022-09-09T09:38:36;27.90;99.90
34877;DHT22;21086;44.780;17.194;2022-09-09T09:41:43;28.10;99.90
34877;DHT22;21086;44.780;17.194;2022-09-09T09:46:51;28.20;99.90
34877;DHT22;21086;44.780;17.194;2022-09-09T09:49:19;28.10;99.90
34877;DHT22;21086;44.780;17.194;2022-09-09T09:51:46;28.30;99.90
34877;DHT22;21086;44.780;17.194;2022-09-09T09:56:43;28.80;99.90
34877;DHT22;21086;44.780;17.194;2022-09-09T10:02:17;28.80;99.90
34877;DHT22;21086;44.780;17.194;2022-09-09T10:04:45;28.60;99.90
34877;DHT22;21086;44.780;17.194;2022-09-09T10:07:20;28.50;99.90
34877;DHT22;21086;44.780;17.194;2022-09-09T10:09:55;28.50;99.90
34877;DHT22;21086;44.780;17.194;2022-09-09T10:12:57;28.40;99.90
34877;DHT22;21086;44.780;17.194;2022-09-09T10:15:51;28.40;99.90
34877;DHT22;21086;44.780;17.194;2022-09-09T10:30:02;30.30;99.90
34877;DHT22;21086;44.780;17.194;2022-09-09T10:40:34;31.80;99.90
34877;DHT22;21086;44.780;17.194;2022-09-09T10:45:55;32.40;99.90
34877;DHT22;21086;44.780;17.194;2022-09-09T10:53:47;32.00;99.90
34877;DHT22;21086;44.780;17.194;2022-09-09T10:56:19;32.00;99.90
34877;DHT22;21086;44.780;17.194;2022-09-09T11:04:29;32.10;99.90
34877;DHT22;21086;44.780;17.194;2022-09-09T11:07:00;32.10;99.90
34877;DHT22;21086;44.780;17.194;2022-09-09T11:09:45;31.90;99.90
34877;DHT22;21086;44.780;17.194;2022-09-09T11:12:18;31.90;99.90
34877;DHT22;21086;44.780;17.194;2022-09-09T11:14:50;31.90;99.90
34877;DHT22;21086;44.780;17.194;2022-09-09T11:17:26;32.00;99.90
34877;DHT22;21086;44.780;17.194;2022-09-09T11:19:57;33.00;99.90
34877;DHT22;21086;44.780;17.194;2022-09-09T11:22:34;34.30;99.90
34877;DHT22;21086;44.780;17.194;2022-09-09T11:25:23;35.40;99.90
34877;DHT22;21086;44.780;17.194;2022-09-09T11:30:47;38.60;99.90
34877;DHT22;21086;44.780;17.194;2022-09-09T11:41:46;39.50;99.90
34877;DHT22;21086;44.780;17.194;2022-09-09T11:44:19;39.40;99.90
34877;DHT22;21086;44.780;17.194;2022-09-09T11:46:51;39.50;99.90
34877;DHT22;21086;44.780;17.194;2022-09-09T11:49:30;39.20;99.90
34877;DHT22;21086;44.780;17.194;2022-09-09T11:52:34;39.30;99.90
34877;DHT22;21086;44.780;17.194;2022-09-09T11:55:27;39.10;99.90
34877;DHT22;21086;44.780;17.194;2022-09-09T11:58:04;40.00;99.90
34877;DHT22;21086;44.780;17.194;2022-09-09T12:00:40;42.20;99.90
34877;DHT22;21086;44.780;17.194;2022-09-09T12:08:56;46.20;99.90
34877;DHT22;21086;44.780;17.194;2022-09-09T12:11:29;47.40;99.90
34877;DHT22;21086;44.780;17.194;2022-09-09T12:13:59;47.80;99.90
34877;DHT22;21086;44.780;17.194;2022-09-09T12:16:35;48.70;99.90
34877;DHT22;21086;44.780;17.194;2022-09-09T12:24:49;47.70;99.90
34877;DHT22;21086;44.780;17.194;2022-09-09T12:27:26;46.50;99.90
34877;DHT22;21086;44.780;17.194;2022-09-09T12:30:07;45.50;99.90
34877;DHT22;21086;44.780;17.194;2022-09-09T12:32:35;44.30;99.90
34877;DHT22;21086;44.780;17.194;2022-09-09T12:35:09;42.60;99.90
34877;DHT22;21086;44.780;17.194;2022-09-09T12:37:42;41.10;99.90
34877;DHT22;21086;44.780;17.194;2022-09-09T12:40:27;40.80;99.90
34877;DHT22;21086;44.780;17.194;2022-09-09T12:42:55;39.90;99.90
34877;DHT22;21086;44.780;17.194;2022-09-09T12:45:24;39.20;99.90
34877;DHT22;21086;44.780;17.194;2022-09-09T12:47:58;39.40;99.90
34877;DHT22;21086;44.780;17.194;2022-09-09T12:50:35;39.50;99.90
34877;DHT22;21086;44.780;17.194;2022-09-09T12:53:22;39.30;99.90
34877;DHT22;21086;44.780;17.194;2022-09-09T12:55:58;38.30;99.90
34877;DHT22;21086;44.780;17.194;2022-09-09T12:58:26;37.80;99.90
34877;DHT22;21086;44.780;17.194;2022-09-09T13:00:56;36.80;99.90
34877;DHT22;21086;44.780;17.194;2022-09-09T13:03:24;35.70;99.90
34877;DHT22;21086;44.780;17.194;2022-09-09T13:05:53;34.60;99.90
34877;DHT22;21086;44.780;17.194;2022-09-09T13:08:20;34.00;99.90
34877;DHT22;21086;44.780;17.194;2022-09-09T13:10:51;33.40;99.90
34877;DHT22;21086;44.780;17.194;2022-09-09T13:16:02;33.20;99.90
34877;DHT22;21086;44.780;17.194;2022-09-09T13:18:34;33.40;99.90
34877;DHT22;21086;44.780;17.194;2022-09-09T13:21:02;33.30;99.90
34877;DHT22;21086;44.780;17.194;2022-09-09T13:23:34;33.90;99.90
34877;DHT22;21086;44.780;17.194;2022-09-09T13:26:22;34.30;99.90
34877;DHT22;21086;44.780;17.194;2022-09-09T13:28:50;35.20;99.90
34877;DHT22;21086;44.780;17.194;2022-09-09T13:31:28;37.50;99.90
34877;DHT22;21086;44.780;17.194;2022-09-09T13:33:56;38.40;99.90
34877;DHT22;21086;44.780;17.194;2022-09-09T13:36:33;38.10;99.90
34877;DHT22;21086;44.780;17.194;2022-09-09T13:39:03;37.50;99.90
34877;DHT22;21086;44.780;17.194;2022-09-09T13:41:33;36.70;99.90
34877;DHT22;21086;44.780;17.194;2022-09-09T13:44:02;35.70;99.90
34877;DHT22;21086;44.780;17.194;2022-09-09T13:46:37;34.60;99.90
34877;DHT22;21086;44.780;17.194;2022-09-09T13:51:46;32.70;99.90
34877;DHT22;21086;44.780;17.194;2022-09-09T13:54:15;32.10;99.90
34877;DHT22;21086;44.780;17.194;2022-09-09T13:56:43;31.60;99.90
34877;DHT22;21086;44.780;17.194;2022-09-09T13:59:12;31.10;99.90
34877;DHT22;21086;44.780;17.194;2022-09-09T14:01:39;30.60;99.90
34877;DHT22;21086;44.780;17.194;2022-09-09T14:04:07;30.10;99.90
34877;DHT22;21086;44.780;17.194;2022-09-09T14:06:35;30.00;99.90
34877;DHT22;21086;44.780;17.194;2022-09-09T14:09:06;29.80;99.90
34877;DHT22;21086;44.780;17.194;2022-09-09T14:11:33;29.70;99.90
34877;DHT22;21086;44.780;17.194;2022-09-09T14:14:00;29.50;99.90
34877;DHT22;21086;44.780;17.194;2022-09-09T14:16:27;29.40;99.90
34877;DHT22;21086;44.780;17.194;2022-09-09T14:18:54;29.30;99.90
34877;DHT22;21086;44.780;17.194;2022-09-09T14:21:23;29.20;99.90
34877;DHT22;21086;44.780;17.194;2022-09-09T14:23:50;29.20;99.90
34877;DHT22;21086;44.780;17.194;2022-09-09T14:26:20;29.40;99.90
34877;DHT22;21086;44.780;17.194;2022-09-09T14:28:48;29.80;99.90
34877;DHT22;21086;44.780;17.194;2022-09-09T14:31:24;30.20;99.90
34877;DHT22;21086;44.780;17.194;2022-09-09T14:33:51;31.10;99.90
34877;DHT22;21086;44.780;17.194;2022-09-09T14:36:19;31.90;99.90
34877;DHT22;21086;44.780;17.194;2022-09-09T14:38:46;32.00;99.90
34877;DHT22;21086;44.780;17.194;2022-09-09T14:41:16;31.40;99.90
34877;DHT22;21086;44.780;17.194;2022-09-09T14:43:44;31.10;99.90
34877;DHT22;21086;44.780;17.194;2022-09-09T14:46:16;30.90;99.90
34877;DHT22;21086;44.780;17.194;2022-09-09T14:48:43;30.30;99.90
34877;DHT22;21086;44.780;17.194;2022-09-09T14:51:31;29.80;99.90
34877;DHT22;21086;44.780;17.194;2022-09-09T14:53:59;29.60;99.90
34877;DHT22;21086;44.780;17.194;2022-09-09T14:56:28;29.40;99.90
34877;DHT22;21086;44.780;17.194;2022-09-09T14:58:57;28.50;99.90
34877;DHT22;21086;44.780;17.194;2022-09-09T15:01:25;27.30;99.90
34877;DHT22;21086;44.780;17.194;2022-09-09T15:03:58;26.20;99.90
34877;DHT22;21086;44.780;17.194;2022-09-09T15:06:27;25.30;99.90
34877;DHT22;21086;44.780;17.194;2022-09-09T15:08:54;24.90;99.90
34877;DHT22;21086;44.780;17.194;2022-09-09T15:11:26;24.90;99.90
34877;DHT22;21086;44.780;17.194;2022-09-09T15:13:54;24.90;99.90
34877;DHT22;21086;44.780;17.194;2022-09-09T15:16:23;25.00;99.90
34877;DHT22;21086;44.780;17.194;2022-09-09T15:18:52;25.20;99.90
34877;DHT22;21086;44.780;17.194;2022-09-09T15:21:22;25.30;99.90
34877;DHT22;21086;44.780;17.194;2022-09-09T15:23:49;25.20;99.90
34877;DHT22;21086;44.780;17.194;2022-09-09T15:26:17;25.20;99.90
34877;DHT22;21086;44.780;17.194;2022-09-09T15:28:45;25.10;99.90
34877;DHT22;21086;44.780;17.194;2022-09-09T15:33:52;24.80;99.90
34877;DHT22;21086;44.780;17.194;2022-09-09T15:36:25;24.80;99.90
34877;DHT22;21086;44.780;17.194;2022-09-09T15:38:52;24.80;99.90
34877;DHT22;21086;44.780;17.194;2022-09-09T15:41:21;24.70;99.90
34877;DHT22;21086;44.780;17.194;2022-09-09T15:43:51;24.60;99.90
34877;DHT22;21086;44.780;17.194;2022-09-09T15:48:51;24.50;99.90
34877;DHT22;21086;44.780;17.194;2022-09-09T15:51:20;24.40;99.90
34877;DHT22;21086;44.780;17.194;2022-09-09T15:54:08;24.20;99.90
34877;DHT22;21086;44.780;17.194;2022-09-09T15:56:36;24.10;99.90
34877;DHT22;21086;44.780;17.194;2022-09-09T15:59:03;24.00;99.90
34877;DHT22;21086;44.780;17.194;2022-09-09T16:01:31;23.80;99.90
34877;DHT22;21086;44.780;17.194;2022-09-09T16:03:59;23.50;99.90
34877;DHT22;21086;44.780;17.194;2022-09-09T16:06:28;23.30;99.90
34877;DHT22;21086;44.780;17.194;2022-09-09T16:08:57;23.20;99.90
34877;DHT22;21086;44.780;17.194;2022-09-09T16:11:30;23.00;99.90
34877;DHT22;21086;44.780;17.194;2022-09-09T16:13:58;22.90;99.90
34877;DHT22;21086;44.780;17.194;2022-09-09T16:16:27;22.80;99.90
34877;DHT22;21086;44.780;17.194;2022-09-09T16:18:56;22.80;99.90
34877;DHT22;21086;44.780;17.194;2022-09-09T16:21:29;22.90;99.90
34877;DHT22;21086;44.780;17.194;2022-09-09T16:23:58;23.00;99.90
34877;DHT22;21086;44.780;17.194;2022-09-09T16:26:30;23.10;99.90
34877;DHT22;21086;44.780;17.194;2022-09-09T16:28:58;23.20;99.90
34877;DHT22;21086;44.780;17.194;2022-09-09T16:31:26;23.10;99.90
34877;DHT22;21086;44.780;17.194;2022-09-09T16:33:53;23.20;99.90
34877;DHT22;21086;44.780;17.194;2022-09-09T16:36:27;23.10;99.90
34877;DHT22;21086;44.780;17.194;2022-09-09T16:38:58;23.10;99.90
34877;DHT22;21086;44.780;17.194;2022-09-09T16:41:26;23.20;99.90
34877;DHT22;21086;44.780;17.194;2022-09-09T16:43:58;23.20;99.90
34877;DHT22;21086;44.780;17.194;2022-09-09T16:46:27;23.30;99.90
34877;DHT22;21086;44.780;17.194;2022-09-09T16:48:56;23.40;99.90
34877;DHT22;21086;44.780;17.194;2022-09-09T16:51:33;23.30;99.90
34877;DHT22;21086;44.780;17.194;2022-09-09T16:54:02;23.20;99.90
34877;DHT22;21086;44.780;17.194;2022-09-09T16:56:31;23.40;99.90
34877;DHT22;21086;44.780;17.194;2022-09-09T16:59:03;23.50;99.90
34877;DHT22;21086;44.780;17.194;2022-09-09T17:01:33;23.50;99.90
34877;DHT22;21086;44.780;17.194;2022-09-09T17:04:07;23.40;99.90
34877;DHT22;21086;44.780;17.194;2022-09-09T17:06:35;23.40;99.90
34877;DHT22;21086;44.780;17.194;2022-09-09T17:09:06;23.40;99.90
34877;DHT22;21086;44.780;17.194;2022-09-09T17:11:35;23.40;99.90
34877;DHT22;21086;44.780;17.194;2022-09-09T17:14:02;23.20;99.90
34877;DHT22;21086;44.780;17.194;2022-09-09T17:16:31;23.20;99.90
34877;DHT22;21086;44.780;17.194;2022-09-09T17:18:58;23.00;99.90
34877;DHT22;21086;44.780;17.194;2022-09-09T17:21:27;22.90;99.90
34877;DHT22;21086;44.780;17.194;2022-09-09T17:23:55;22.90;99.90
34877;DHT22;21086;44.780;17.194;2022-09-09T17:26:25;22.90;99.90
34877;DHT22;21086;44.780;17.194;2022-09-09T17:28:53;22.90;99.90
34877;DHT22;21086;44.780;17.194;2022-09-09T17:31:25;22.90;99.90
34877;DHT22;21086;44.780;17.194;2022-09-09T17:33:55;22.90;99.90
34877;DHT22;21086;44.780;17.194;2022-09-09T17:36:33;22.80;99.90
34877;DHT22;21086;44.780;17.194;2022-09-09T17:39:01;22.80;99.90
34877;DHT22;21086;44.780;17.194;2022-09-09T17:41:31;22.80;99.90
34877;DHT22;21086;44.780;17.194;2022-09-09T17:43:59;22.80;99.90
34877;DHT22;21086;44.780;17.194;2022-09-09T17:46:41;22.80;99.90
34877;DHT22;21086;44.780;17.194;2022-09-09T17:49:11;22.70;99.90
34877;DHT22;21086;44.780;17.194;2022-09-09T17:51:38;22.70;99.90
34877;DHT22;21086;44.780;17.194;2022-09-09T17:54:11;22.70;99.90
34877;DHT22;21086;44.780;17.194;2022-09-09T17:56:39;22.70;99.90
34877;DHT22;21086;44.780;17.194;2022-09-09T17:59:08;22.70;1.00
34877;DHT22;21086;44.780;17.194;2022-09-09T18:01:38;22.60;1.00
34877;DHT22;21086;44.780;17.194;2022-09-09T18:04:09;22.50;1.00
34877;DHT22;21086;44.780;17.194;2022-09-09T18:06:38;22.50;1.00
34877;DHT22;21086;44.780;17.194;2022-09-09T18:09:08;22.40;1.00
34877;DHT22;21086;44.780;17.194;2022-09-09T18:11:38;22.30;1.00
34877;DHT22;21086;44.780;17.194;2022-09-09T18:14:11;22.30;1.00
34877;DHT22;21086;44.780;17.194;2022-09-09T18:16:39;22.30;1.00